Time;durP1;ratioP1;P1;durP2;ratioP2;P2;SDS_P1;SDS_P2;PMS_P1;PMS_P2;Temp;Humidity;BMP_temperature;BMP_pressure;BME280_temperature;BME280_humidity;BME280_pressure;Samples;Min_cycle;Max_cycle;Signal;HPM_P1;HPM_P2
2023/02/08 00:02:18;;;;;;;2.42;2.25;;;;;;;-1.75;55.14;102235.03;4386034;32;33753;-86
2023/02/08 00:04:46;;;;;;;2.75;2.60;;;;;;;-1.63;54.48;102245.06;4397698;32;33437;-87
2023/02/08 00:07:14;;;;;;;3.85;3.40;;;;;;;-1.70;54.48;102237.84;4386139;32;33057;-86
2023/02/08 00:09:42;;;;;;;12.10;2.15;;;;;;;-1.59;54.38;102246.97;4383907;32;32944;-86
2023/02/08 00:12:10;;;;;;;1.92;1.73;;;;;;;-1.85;55.20;102249.28;4374876;32;35159;-86
2023/02/08 00:14:39;;;;;;;1.30;1.30;;;;;;;-1.71;54.82;102247.31;4387785;32;33901;-88
2023/02/08 00:17:07;;;;;;;3.65;1.67;;;;;;;-1.69;55.20;102245.69;4374031;32;33017;-88
2023/02/08 00:19:36;;;;;;;2.55;2.42;;;;;;;-1.65;55.49;102257.97;4374308;32;32695;-88
2023/02/08 00:22:04;;;;;;;1.40;1.40;;;;;;;-1.44;55.14;102252.84;4386162;32;34183;-88
2023/02/08 00:24:32;;;;;;;1.30;1.30;;;;;;;-1.72;56.25;102252.41;4397473;32;33570;-88
2023/02/08 00:27:00;;;;;;;1.15;1.15;;;;;;;-1.66;56.54;102251.00;4385907;32;34171;-88
2023/02/08 00:29:28;;;;;;;6.70;3.30;;;;;;;-1.59;56.70;102257.34;4373374;32;33311;-89
2023/02/08 00:31:57;;;;;;;0.90;0.90;;;;;;;-1.34;55.74;102255.00;4374653;32;34435;-89
2023/02/08 00:34:26;;;;;;;0.62;0.62;;;;;;;-1.46;56.33;102253.59;4374034;32;32976;-88
2023/02/08 00:36:54;;;;;;;1.45;1.42;;;;;;;-1.27;56.26;102265.66;4387017;32;32844;-89
2023/02/08 00:39:23;;;;;;;1.02;1.02;;;;;;;-1.37;56.81;102257.47;4395318;32;33480;-89
2023/02/08 00:41:51;;;;;;;1.48;1.40;;;;;;;-1.37;56.88;102257.47;4374348;32;33103;-89
2023/02/08 00:44:24;;;;;;;0.95;0.93;;;;;;;-1.25;57.01;102253.66;4386182;32;33872;-89
2023/02/08 00:46:53;;;;;;;10.43;2.00;;;;;;;-1.14;56.71;102248.13;4376111;32;33023;-89
2023/02/08 00:49:22;;;;;;;2.15;1.80;;;;;;;-1.04;56.36;102254.59;4371588;32;32246;-88
2023/02/08 00:51:50;;;;;;;0.32;0.32;;;;;;;-0.97;56.30;102260.91;4371598;32;32177;-89
2023/02/08 00:54:20;;;;;;;1.02;1.02;;;;;;;-0.99;56.70;102268.62;4372281;32;34199;-88
2023/02/08 00:56:50;;;;;;;3.67;3.47;;;;;;;-0.96;56.77;102262.66;4373721;32;34213;-88
2023/02/08 00:59:21;;;;;;;3.12;1.55;;;;;;;-0.97;56.57;102261.78;4374743;32;35708;-90
2023/02/08 01:02:02;;;;;;;11.93;2.53;;;;;;;-0.67;55.87;102257.00;4371168;32;33013;-89
2023/02/08 01:04:35;;;;;;;4.17;3.83;;;;;;;-0.77;55.89;102255.72;4370318;32;33349;-90
2023/02/08 01:07:09;;;;;;;;;;;;;;;-0.66;55.50;102258.78;4370997;32;34875;-89
2023/02/08 01:09:39;;;;;;;;;;;;;;;-0.45;55.15;102260.47;4366208;32;32700;-89
2023/02/08 01:12:11;;;;;;;;;;;;;;;-0.75;56.02;102252.34;4373235;32;33488;-89
2023/02/08 01:14:46;;;;;;;;;;;;;;;-0.81;56.39;102247.75;4375738;32;33349;-89
2023/02/08 01:17:13;;;;;;;;;;;;;;;-0.75;56.50;102253.22;4384180;32;32724;-89
2023/02/08 01:19:41;;;;;;;;;;;;;;;-0.61;56.29;102246.00;4371746;32;32416;-89
2023/02/08 01:22:09;;;;;;;;;;;;;;;-0.64;56.45;102245.88;4361787;32;33702;-89
2023/02/08 01:24:36;;;;;;;;;;;;;;;-0.48;56.18;102247.37;4379178;32;33387;-89
2023/02/08 01:27:04;;;;;;;;;;;;;;;-0.46;56.12;102241.44;4359177;32;33407;-89
2023/02/08 01:29:32;;;;;;;;;;;;;;;-0.39;56.02;102237.34;4357640;32;32370;-89
2023/02/08 01:32:00;;;;;;;;;;;;;;;-0.37;56.21;102235.72;4384880;32;33520;-89
2023/02/08 01:34:28;;;;;;;;;;;;;;;-0.44;56.24;102244.94;4361118;32;33073;-89
2023/02/08 01:37:00;;;;;;;;;;;;;;;-0.25;56.01;102246.56;4385329;32;33322;-89
2023/02/08 01:39:27;;;;;;;;;;;;;;;-0.21;56.05;102245.88;4379559;32;32348;-87
2023/02/08 01:41:54;;;;;;;6.70;4.55;;;;;;;-0.14;55.99;102255.69;4378872;32;31835;-87
2023/02/08 01:45:01;;;;;;;0.00;0.00;;;;;;;-0.07;56.01;102256.81;4372376;32;33147;-87
2023/02/08 01:47:29;;;;;;;2.25;1.52;;;;;;;-0.04;56.09;102256.94;4391824;32;33211;-87
2023/02/08 01:49:57;;;;;;;2.05;1.95;;;;;;;-0.11;56.10;102250.59;4379964;32;34211;-87
2023/02/08 01:52:27;;;;;;;2.47;2.15;;;;;;;-0.01;55.92;102247.53;4392027;32;34232;-91
2023/02/08 01:55:29;;;;;;;2.80;2.53;;;;;;;0.00;56.12;102256.22;4370949;32;32852;-90
2023/02/08 01:58:05;;;;;;;2.80;2.60;;;;;;;0.12;55.96;102259.28;4381859;32;32903;-90
2023/02/08 02:00:33;;;;;;;4.53;4.22;;;;;;;0.16;56.09;102250.78;4361288;32;32816;-89
2023/02/08 02:03:03;;;;;;;3.50;1.65;;;;;;;0.13;56.25;102245.44;4366601;32;32383;-89
2023/02/08 02:05:34;;;;;;;1.55;1.55;;;;;;;0.26;55.76;102246.81;4392069;32;32948;-89
2023/02/08 02:08:02;;;;;;;1.95;1.85;;;;;;;0.36;55.86;102242.84;4367511;32;33029;-89
2023/02/08 02:10:32;;;;;;;1.45;1.37;;;;;;;0.42;55.38;102248.25;4367680;32;34180;-89
2023/02/08 02:13:11;;;;;;;0.57;0.57;;;;;;;0.12;55.58;102243.69;4355077;32;33059;-90
2023/02/08 02:15:43;;;;;;;1.20;1.20;;;;;;;0.42;55.23;102243.06;4367422;32;32951;-90
2023/02/08 02:18:34;;;;;;;2.42;1.90;;;;;;;0.30;55.39;102250.41;4366342;32;32168;-90
2023/02/08 02:21:40;;;;;;;1.90;1.80;;;;;;;0.22;55.86;102251.00;4371979;32;31672;-92
2023/02/08 02:24:59;;;;;;;0.88;0.88;;;;;;;0.33;55.47;102245.31;4401465;32;32429;-92
2023/02/08 02:28:14;;;;;;;0.15;0.15;;;;;;;0.33;55.24;102240.13;4402231;32;33382;-91
2023/02/08 02:31:02;;;;;;;0.15;0.15;;;;;;;0.33;55.17;102232.31;4392775;32;32713;-91
2023/02/08 02:34:01;;;;;;;1.65;1.55;;;;;;;0.56;54.60;102230.56;4382261;32;32506;-92
2023/02/08 02:36:46;;;;;;;0.98;0.98;;;;;;;0.50;54.92;102233.84;4393373;32;32522;-90
2023/02/08 02:39:34;;;;;;;1.55;1.45;;;;;;;0.64;54.64;102237.81;4392486;32;32821;-90
2023/02/08 02:45:54;;;;;;;;;;;;;;;0.49;55.36;102235.53;4398633;32;32447;-89
2023/02/08 02:48:57;;;;;;;0.20;0.20;;;;;;;0.68;54.77;102237.09;4406895;32;32232;-87
2023/02/08 02:51:37;;;;;;;2.65;0.75;;;;;;;0.56;55.18;102236.63;4406528;32;33439;-89
2023/02/08 02:54:07;;;;;;;1.87;1.37;;;;;;;0.47;55.55;102249.31;4393338;32;32906;-89
2023/02/08 02:56:41;;;;;;;0.43;0.43;;;;;;;0.95;54.41;102252.78;4381491;32;33812;-90
2023/02/08 02:59:11;;;;;;;2.10;2.00;;;;;;;0.46;55.28;102244.94;4406689;32;32748;-89
2023/02/08 03:01:41;;;;;;;1.85;1.75;;;;;;;0.64;55.25;102256.00;4381538;32;32944;-90
2023/02/08 03:04:18;;;;;;;0.05;0.05;;;;;;;0.52;55.27;102255.56;4393880;32;33975;-89
2023/02/08 03:07:16;;;;;;;0.20;0.20;;;;;;;0.60;55.22;102256.72;4406788;32;33106;-89
2023/02/08 03:10:14;;;;;;;1.77;1.65;;;;;;;0.65;54.94;102257.78;4387296;32;32837;-89
2023/02/08 03:12:57;;;;;;;0.93;0.93;;;;;;;0.51;55.58;102265.06;4412609;32;33664;-89
2023/02/08 03:16:15;;;;;;;3.40;1.95;;;;;;;0.64;55.53;102265.53;4402457;32;32665;-91
2023/02/08 03:18:43;;;;;;;4.32;2.45;;;;;;;0.43;55.98;102274.31;4368802;32;33214;-90
2023/02/08 03:21:40;;;;;;;0.40;0.40;;;;;;;0.63;55.68;102269.84;4383798;32;33061;-90
2023/02/08 03:24:12;;;;;;;0.30;0.30;;;;;;;0.64;55.05;102276.81;4405761;32;33352;-90
2023/02/08 03:27:07;;;;;;;3.35;1.15;;;;;;;0.57;55.77;102282.62;4406518;32;32969;-88
2023/02/08 03:30:23;;;;;;;0.80;0.80;;;;;;;0.57;54.95;102287.84;4417717;32;33279;-90
2023/02/08 03:33:10;;;;;;;2.47;2.35;;;;;;;0.80;54.66;102296.44;4378034;32;33277;-90
2023/02/08 03:36:23;;;;;;;0.30;0.30;;;;;;;0.73;54.48;102282.34;4380472;32;34256;-93
2023/02/08 03:39:21;;;;;;;1.15;1.15;;;;;;;0.67;54.62;102274.34;4366568;32;33813;-90
2023/02/08 03:42:04;;;;;;;0.65;0.65;;;;;;;0.58;55.50;102281.78;4367278;32;32392;-90
2023/02/08 03:45:16;;;;;;;0.43;0.43;;;;;;;0.65;55.03;102288.97;4415313;32;35277;-89
2023/02/08 03:48:05;;;;;;;0.88;0.80;;;;;;;0.83;54.92;102288.75;4406423;32;33380;-87
2023/02/08 03:50:36;;;;;;;0.73;0.73;;;;;;;0.89;54.58;102283.78;4400989;32;33338;-88
2023/02/08 03:53:07;;;;;;;0.00;0.00;;;;;;;0.93;54.85;102289.97;4399849;32;32014;-89
2023/02/08 03:55:44;;;;;;;0.70;0.70;;;;;;;1.18;53.97;102297.78;4401561;32;33366;-88
2023/02/08 03:58:33;;;;;;;0.47;0.47;;;;;;;1.38;53.64;102301.09;4388336;32;33405;-87
2023/02/08 04:01:23;;;;;;;3.83;1.58;;;;;;;1.06;54.55;102300.00;4389748;32;33515;-87
2023/02/08 04:03:52;;;;;;;0.10;0.10;;;;;;;0.90;55.08;102295.06;4386832;32;32450;-86
2023/02/08 04:06:22;;;;;;;1.60;1.50;;;;;;;0.77;55.48;102289.44;4386935;32;33265;-86
2023/02/08 04:08:51;;;;;;;3.15;2.85;;;;;;;0.95;55.16;102296.09;4400370;32;34041;-86
2023/02/08 04:11:20;;;;;;;1.17;0.77;;;;;;;1.29;53.93;102295.59;4387385;32;33308;-90
2023/02/08 04:14:03;;;;;;;0.73;0.73;;;;;;;0.98;55.10;102288.41;4403546;32;33319;-89
2023/02/08 04:16:50;;;;;;;0.62;0.62;;;;;;;1.13;54.83;102288.06;4393728;32;34537;-88
2023/02/08 04:19:30;;;;;;;4.05;1.27;;;;;;;1.20;54.94;102298.75;4385116;32;35499;-91
2023/02/08 04:22:13;;;;;;;0.00;0.00;;;;;;;1.17;54.80;102290.81;4394337;32;31438;-93
2023/02/08 04:25:08;;;;;;;4.20;2.30;;;;;;;1.07;54.80;102293.94;4377731;32;33903;-90
2023/02/08 04:27:36;;;;;;;1.10;1.10;;;;;;;1.38;54.11;102295.00;4385200;32;33888;-90
2023/02/08 04:30:05;;;;;;;0.32;0.32;;;;;;;0.99;55.29;102300.59;4385487;32;33863;-90
2023/02/08 04:32:33;;;;;;;0.10;0.10;;;;;;;1.23;54.60;102306.66;4384981;32;35976;-92
2023/02/08 04:35:42;;;;;;;1.02;1.02;;;;;;;1.44;54.32;102298.69;4408585;32;33953;-91
2023/02/08 04:38:12;;;;;;;0.52;0.52;;;;;;;1.35;54.24;102284.50;4401443;32;32507;-91
2023/02/08 04:40:42;;;;;;;1.27;1.20;;;;;;;1.33;54.24;102287.06;4414776;32;33375;-90
2023/02/08 04:43:11;;;;;;;0.73;0.55;;;;;;;1.40;53.64;102273.38;4402382;32;33575;-92
2023/02/08 04:48:36;;;;;;;0.17;0.17;;;;;;;1.51;53.54;102284.16;4415757;32;33790;-88
2023/02/08 04:51:04;;;;;;;1.67;1.37;;;;;;;1.57;53.66;102279.16;4399406;32;33641;-89
2023/02/08 04:53:33;;;;;;;0.10;0.10;;;;;;;1.66;53.30;102291.56;4408461;32;33165;-89
2023/02/08 04:56:02;;;;;;;0.08;0.08;;;;;;;1.94;52.50;102288.13;4416560;32;33415;-88
2023/02/08 04:58:30;;;;;;;0.45;0.45;;;;;;;1.75;52.92;102292.75;4399199;32;33058;-88
2023/02/08 05:00:58;;;;;;;0.85;0.82;;;;;;;1.56;53.92;102286.91;4411896;32;32930;-89
2023/02/08 05:03:30;;;;;;;0.30;0.30;;;;;;;1.67;53.66;102289.03;4402101;32;33863;-89
2023/02/08 05:06:00;;;;;;;0.00;0.00;;;;;;;1.83;53.02;102279.09;4396992;32;32947;-89
2023/02/08 05:08:28;;;;;;;0.47;0.47;;;;;;;1.71;53.16;102285.72;4402312;32;33293;-89
2023/02/08 05:10:56;;;;;;;0.55;0.55;;;;;;;1.77;53.14;102292.81;4398645;32;33067;-88
2023/02/08 05:13:24;;;;;;;0.00;0.00;;;;;;;1.86;53.15;102297.44;4413647;32;33748;-89
2023/02/08 05:15:55;;;;;;;0.15;0.15;;;;;;;1.93;53.14;102296.78;4412807;32;32249;-89
2023/02/08 05:18:24;;;;;;;0.93;0.90;;;;;;;1.71;53.86;102296.12;4411778;32;33900;-89
2023/02/08 05:20:59;;;;;;;;;;;;;;;1.80;53.34;102305.94;4402372;32;35139;-89
2023/02/08 05:23:28;;;;;;;;;;;;;;;1.68;53.74;102301.22;4419451;32;34927;-89
2023/02/08 05:25:57;;;;;;;0.20;0.20;;;;;;;1.64;54.14;102309.75;4412336;32;32979;-89
2023/02/08 05:28:25;;;;;;;1.05;1.05;;;;;;;1.67;54.15;102312.47;4411992;32;33356;-90
2023/02/08 05:30:54;;;;;;;0.68;0.40;;;;;;;1.76;53.88;102320.59;4411437;32;34463;-88
2023/02/08 05:33:23;;;;;;;0.50;0.50;;;;;;;1.70;53.99;102320.38;4410779;32;32633;-88
2023/02/08 05:35:53;;;;;;;0.70;0.70;;;;;;;1.66;54.08;102317.63;4399390;32;33223;-89
2023/02/08 05:38:22;;;;;;;1.30;1.12;;;;;;;1.69;53.65;102317.72;4411521;32;34278;-89
2023/02/08 05:40:51;;;;;;;2.65;2.28;;;;;;;1.88;52.51;102314.00;4412950;32;33186;-89
2023/02/08 05:43:20;;;;;;;3.05;2.83;;;;;;;1.77;52.74;102314.53;4411580;32;32905;-89
2023/02/08 05:45:50;;;;;;;0.40;0.40;;;;;;;1.90;50.77;102305.41;4411800;32;33089;-89
2023/02/08 05:48:19;;;;;;;0.00;0.00;;;;;;;2.00;50.42;102311.81;4399591;32;34365;-89
2023/02/08 05:50:47;;;;;;;1.50;1.40;;;;;;;2.07;49.92;102310.25;4412597;32;34282;-89
2023/02/08 05:53:19;;;;;;;0.40;0.40;;;;;;;2.41;48.50;102306.94;4386757;32;32767;-89
2023/02/08 05:55:47;;;;;;;0.00;0.00;;;;;;;2.20;48.86;102307.19;4394114;32;32819;-88
2023/02/08 05:58:19;;;;;;;0.22;0.22;;;;;;;2.01;49.20;102305.75;4410842;32;33288;-88
2023/02/08 06:00:53;;;;;;;0.95;0.95;;;;;;;2.19;48.64;102295.88;4399593;32;32664;-84
2023/02/08 06:03:23;;;;;;;0.10;0.10;;;;;;;2.04;48.80;102305.81;4412644;32;33301;-84
2023/02/08 06:06:10;;;;;;;0.50;0.50;;;;;;;1.86;49.38;102313.97;4414267;32;33429;-83
2023/02/08 06:08:43;;;;;;;0.00;0.00;;;;;;;1.99;48.89;102313.53;4415821;32;33522;-84
2023/02/08 06:11:12;;;;;;;0.00;0.00;;;;;;;1.86;49.24;102326.09;4395397;32;32712;-84
2023/02/08 06:13:42;;;;;;;0.10;0.10;;;;;;;2.05;48.40;102326.75;4403434;32;32080;-84
2023/02/08 06:16:15;;;;;;;0.30;0.30;;;;;;;2.12;48.02;102338.22;4410436;32;33520;-84
2023/02/08 06:18:46;;;;;;;0.15;0.15;;;;;;;2.02;48.14;102336.16;4412980;32;33095;-84
2023/02/08 06:21:16;;;;;;;0.62;0.62;;;;;;;2.04;47.89;102342.31;4412928;32;34207;-85
2023/02/08 06:26:25;;;;;;;0.32;0.32;;;;;;;1.96;48.08;102338.59;4408382;32;33209;-84
2023/02/08 06:28:53;;;;;;;1.12;1.00;;;;;;;1.89;47.98;102342.69;4401688;32;33943;-84
2023/02/08 06:34:20;;;;;;;0.85;0.43;;;;;;;1.97;47.21;102345.56;4403006;32;32554;-86
2023/02/08 06:36:51;;;;;;;0.17;0.17;;;;;;;2.01;47.22;102343.09;4412840;32;33391;-87
2023/02/08 06:39:25;;;;;;;1.62;1.35;;;;;;;2.08;46.99;102338.97;4407123;32;34434;-87
2023/02/08 06:42:06;;;;;;;0.15;0.15;;;;;;;1.77;47.43;102343.19;4413580;32;32907;-87
2023/02/08 06:44:34;;;;;;;0.30;0.13;;;;;;;1.89;48.01;102352.25;4406693;32;33710;-87
2023/02/08 06:47:03;;;;;;;0.20;0.20;;;;;;;1.76;48.26;102346.66;4413958;32;32728;-87
2023/02/08 06:49:37;;;;;;;0.37;0.37;;;;;;;2.33;46.58;102350.16;4413132;32;33593;-87
2023/02/08 06:52:07;;;;;;;1.95;1.67;;;;;;;2.55;46.00;102344.75;4416155;32;33639;-87
2023/02/08 06:54:40;;;;;;;1.50;1.42;;;;;;;2.56;45.83;102354.34;4414248;32;33865;-86
2023/02/08 06:57:12;;;;;;;0.28;0.28;;;;;;;1.99;46.97;102357.81;4389811;32;32589;-87
2023/02/08 06:59:43;;;;;;;0.10;0.10;;;;;;;2.10;47.00;102360.75;4414156;32;33514;-86
2023/02/08 07:02:16;;;;;;;0.00;0.00;;;;;;;2.10;46.64;102354.66;4413990;32;33375;-86
2023/02/08 07:04:48;;;;;;;0.00;0.00;;;;;;;2.08;47.16;102365.03;4412722;32;33902;-87
2023/02/08 07:07:19;;;;;;;0.62;0.62;;;;;;;2.17;46.80;102369.66;4414817;32;33187;-87
2023/02/08 07:09:47;;;;;;;0.00;0.00;;;;;;;2.31;46.58;102363.16;4398931;32;33308;-87
2023/02/08 07:12:18;;;;;;;0.20;0.20;;;;;;;2.44;46.37;102369.63;4401692;32;35449;-86
2023/02/08 07:14:53;;;;;;;2.05;0.85;;;;;;;2.40;46.36;102360.81;4414124;32;34683;-86
2023/02/08 07:17:22;;;;;;;0.17;0.17;;;;;;;2.81;45.57;102362.06;4401916;32;32877;-86
2023/02/08 07:19:51;;;;;;;0.68;0.68;;;;;;;2.70;46.37;102363.47;4412104;32;34844;-87
2023/02/08 07:22:21;;;;;;;0.00;0.00;;;;;;;2.87;45.33;102365.69;4402084;32;33699;-87
2023/02/08 07:24:49;;;;;;;0.10;0.10;;;;;;;2.68;45.88;102379.91;4402120;32;33651;-86
2023/02/08 07:27:19;;;;;;;0.00;0.00;;;;;;;2.94;45.41;102372.84;4400204;32;33166;-86
2023/02/08 07:29:50;;;;;;;1.35;1.25;;;;;;;2.97;45.50;102379.03;4413450;32;32411;-86
2023/02/08 07:32:19;;;;;;;7.68;0.45;;;;;;;3.17;45.02;102382.22;4413662;32;34474;-86
2023/02/08 07:34:47;;;;;;;0.90;0.80;;;;;;;3.18;45.29;102378.78;4412081;32;33816;-86
2023/02/08 07:37:25;;;;;;;0.62;0.62;;;;;;;2.60;45.82;102394.44;4398654;32;32781;-86
2023/02/08 07:39:54;;;;;;;0.47;0.47;;;;;;;2.81;45.58;102401.22;4401507;32;33683;-87
2023/02/08 07:42:26;;;;;;;1.50;1.40;;;;;;;2.90;46.12;102391.88;4400249;32;32577;-86
2023/02/08 07:47:36;;;;;;;0.37;0.37;;;;;;;3.27;44.89;102392.06;4397895;32;32676;-86
2023/02/08 07:50:08;;;;;;;0.00;0.00;;;;;;;3.31;44.97;102400.88;4402134;32;32879;-86
2023/02/08 07:52:37;;;;;;;0.35;0.35;;;;;;;3.18;45.56;102402.28;4400776;32;32649;-86
2023/02/08 07:55:08;;;;;;;4.75;2.05;;;;;;;3.42;44.81;102390.69;4414932;32;33736;-87
2023/02/08 07:57:42;;;;;;;0.00;0.00;;;;;;;3.30;45.01;102391.28;4396530;32;32276;-87
2023/02/08 08:00:14;;;;;;;3.50;2.50;;;;;;;3.13;45.51;102401.22;4401864;32;33106;-86
2023/02/08 08:02:43;;;;;;;0.00;0.00;;;;;;;3.19;46.21;102396.22;4413035;32;34295;-87
2023/02/08 08:05:29;;;;;;;0.55;0.55;;;;;;;3.41;45.74;102402.00;4403385;32;34405;-86
2023/02/08 08:08:04;;;;;;;0.10;0.10;;;;;;;3.68;44.19;102402.75;4392075;32;33786;-86
2023/02/08 08:10:41;;;;;;;0.47;0.47;;;;;;;3.57;44.79;102404.19;4414025;32;34749;-88
2023/02/08 08:13:13;;;;;;;0.13;0.13;;;;;;;3.44;45.09;102407.31;4401985;32;33120;-87
2023/02/08 08:15:51;;;;;;;0.25;0.25;;;;;;;3.82;44.60;102418.78;4408162;32;34229;-85
2023/02/08 08:18:20;;;;;;;5.68;1.85;;;;;;;3.38;45.36;102420.22;4405804;32;33124;-84
2023/02/08 08:20:51;;;;;;;0.62;0.62;;;;;;;2.77;46.89;102425.44;4405569;32;33503;-84
2023/02/08 08:23:21;;;;;;;2.40;1.45;;;;;;;3.22;46.52;102419.75;4403684;32;33472;-84
2023/02/08 08:25:50;;;;;;;0.73;0.73;;;;;;;3.28;46.27;102422.56;4405204;32;32112;-84
2023/02/08 08:28:18;;;;;;;0.43;0.22;;;;;;;2.84;46.80;102429.09;4396053;32;32486;-84
2023/02/08 08:30:48;;;;;;;0.82;0.52;;;;;;;3.07;47.09;102424.56;4401977;32;32801;-84
2023/02/08 08:33:27;;;;;;;0.73;0.62;;;;;;;3.08;46.67;102418.50;4403687;32;34089;-84
2023/02/08 08:35:56;;;;;;;1.27;1.17;;;;;;;3.44;47.44;102428.22;4403640;32;33488;-84
2023/02/08 08:38:24;;;;;;;0.40;0.40;;;;;;;3.89;45.29;102418.06;4411090;32;32705;-84
2023/02/08 08:40:52;;;;;;;0.80;0.80;;;;;;;4.04;45.14;102428.06;4406549;32;33173;-84
2023/02/08 08:43:21;;;;;;;0.70;0.70;;;;;;;3.70;45.33;102427.16;4402949;32;32862;-84
2023/02/08 08:45:50;;;;;;;1.20;1.10;;;;;;;3.63;45.96;102434.81;4410667;32;33635;-85
2023/02/08 08:48:21;;;;;;;0.13;0.13;;;;;;;3.16;46.66;102437.00;4409627;32;33792;-84
2023/02/08 08:50:55;;;;;;;3.30;1.08;;;;;;;2.60;48.17;102439.66;4403177;32;33507;-84
2023/02/08 08:53:24;;;;;;;1.00;0.90;;;;;;;3.31;46.94;102432.19;4401277;32;34096;-84
2023/02/08 08:55:55;;;;;;;0.65;0.65;;;;;;;3.34;47.43;102427.97;4404540;32;34346;-85
2023/02/08 08:58:24;;;;;;;0.35;0.35;;;;;;;3.22;47.58;102430.22;4411315;32;33072;-84
2023/02/08 09:00:58;;;;;;;2.05;1.35;;;;;;;2.97;47.97;102435.56;4407072;32;32845;-85
2023/02/08 09:03:28;;;;;;;2.72;1.25;;;;;;;3.44;46.81;102433.44;4400133;32;34166;-84
2023/02/08 09:05:58;;;;;;;2.00;0.90;;;;;;;3.43;46.49;102447.34;4405307;32;34550;-84
2023/02/08 09:08:26;;;;;;;0.88;0.35;;;;;;;3.51;46.40;102435.34;4405421;32;31688;-84
2023/02/08 09:11:03;;;;;;;;;;;;;;;3.60;45.99;102436.50;4396136;32;34043;-85
2023/02/08 09:13:31;;;;;;;0.73;0.73;;;;;;;3.59;46.31;102444.31;4399414;32;33748;-86
2023/02/08 09:16:10;;;;;;;0.75;0.75;;;;;;;3.92;46.06;102443.44;4401149;32;34056;-85
2023/02/08 09:18:41;;;;;;;0.20;0.20;;;;;;;3.63;46.59;102456.59;4391280;32;35009;-86
2023/02/08 09:21:19;;;;;;;0.10;0.10;;;;;;;3.70;46.46;102455.03;4405948;32;33469;-86
2023/02/08 09:23:51;;;;;;;0.40;0.40;;;;;;;3.47;47.08;102467.50;4400025;32;107917;-87
2023/02/08 09:26:23;;;;;;;2.37;1.65;;;;;;;3.04;48.21;102474.09;4402606;32;32811;-87
2023/02/08 09:28:54;;;;;;;0.10;0.10;;;;;;;3.54;47.22;102472.03;4409907;32;32918;-85
2023/02/08 09:31:26;;;;;;;2.75;1.00;;;;;;;3.50;46.86;102475.41;4404182;32;35207;-85
2023/02/08 09:33:56;;;;;;;0.30;0.30;;;;;;;3.68;47.16;102473.28;4411555;32;32980;-85
2023/02/08 09:36:28;;;;;;;0.00;0.00;;;;;;;4.05;45.96;102472.53;4393004;32;33601;-85
2023/02/08 09:39:01;;;;;;;0.28;0.28;;;;;;;4.08;46.12;102464.78;4390074;32;32340;-84
2023/02/08 09:41:55;;;;;;;0.80;0.80;;;;;;;3.78;46.16;102467.47;4397724;32;32662;-84
2023/02/08 09:44:50;;;;;;;0.20;0.20;;;;;;;4.17;45.68;102469.34;4393938;32;33073;-84
2023/02/08 09:47:28;;;;;;;0.17;0.17;;;;;;;3.66;46.85;102472.38;4396379;32;33431;-84
2023/02/08 09:50:00;;;;;;;;;;;;;;;4.06;46.14;102468.19;4398395;32;33762;-84
2023/02/08 09:52:41;;;;;;;0.20;0.20;;;;;;;4.21;45.61;102468.56;4399217;32;32711;-84
2023/02/08 09:55:35;;;;;;;0.28;0.28;;;;;;;4.35;45.70;102471.53;4393490;32;33993;-84
2023/02/08 09:58:26;;;;;;;0.45;0.45;;;;;;;4.43;45.84;102471.75;4397464;32;32740;-84
2023/02/08 10:00:59;;;;;;;0.28;0.28;;;;;;;4.74;44.91;102471.59;4388572;32;32410;-84
2023/02/08 10:03:35;;;;;;;0.55;0.55;;;;;;;5.22;43.51;102462.16;4389287;32;33824;-84
2023/02/08 10:08:54;;;;;;;1.60;0.60;;;;;;;4.78;43.93;102462.97;4395687;32;35965;-84
2023/02/08 10:11:42;;;;;;;3.17;0.32;;;;;;;4.50;43.87;102471.03;4399405;32;31702;-84
2023/02/08 10:14:42;;;;;;;0.45;0.45;;;;;;;5.08;42.88;102454.91;4410044;32;33799;-84
2023/02/08 10:17:45;;;;;;;0.15;0.15;;;;;;;4.93;43.07;102456.28;4395239;32;35928;-85
2023/02/08 10:20:39;;;;;;;0.00;0.00;;;;;;;4.79;43.19;102454.25;4407351;32;33295;-84
2023/02/08 10:26:12;;;;;;;1.45;0.55;;;;;;;5.24;42.30;102452.59;4397101;32;34483;-84
2023/02/08 10:28:42;;;;;;;1.55;0.62;;;;;;;4.43;43.47;102464.75;4407572;32;33002;-84
2023/02/08 10:31:22;;;;;;;0.10;0.10;;;;;;;4.63;43.38;102460.00;4410782;32;33759;-84
2023/02/08 10:34:00;;;;;;;0.98;0.88;;;;;;;5.56;41.51;102456.75;4409049;32;31704;-85
2023/02/08 10:36:40;;;;;;;0.85;0.85;;;;;;;5.26;42.64;102450.87;4407251;32;32780;-84
2023/02/08 10:39:34;;;;;;;0.00;0.00;;;;;;;5.46;43.85;102459.12;4424319;32;34066;-84
2023/02/08 10:42:10;;;;;;;0.07;0.07;;;;;;;5.65;42.03;102450.81;4415037;32;33215;-85
2023/02/08 10:45:02;;;;;;;1.80;1.60;;;;;;;6.04;40.09;102452.41;4409066;32;32293;-84
2023/02/08 10:47:56;;;;;;;0.10;0.10;;;;;;;6.05;40.13;102451.56;4397034;32;33661;-85
2023/02/08 10:50:35;;;;;;;0.80;0.80;;;;;;;6.23;40.40;102457.13;4419563;32;33137;-85
2023/02/08 10:53:19;;;;;;;1.20;1.12;;;;;;;6.28;40.84;102454.56;4420812;32;33123;-84
2023/02/08 10:56:04;;;;;;;0.50;0.50;;;;;;;6.39;39.00;102453.87;4399397;32;34995;-84
2023/02/08 10:58:37;;;;;;;1.08;1.08;;;;;;;6.47;39.24;102443.50;4414473;32;34234;-85
2023/02/08 11:01:27;;;;;;;0.90;0.90;;;;;;;5.90;41.12;102447.78;4419438;32;34303;-85
2023/02/08 11:04:10;;;;;;;1.10;1.05;;;;;;;5.71;41.51;102445.66;4404468;32;32702;-84
2023/02/08 11:06:49;;;;;;;10.20;2.42;;;;;;;6.48;39.30;102442.63;4412694;32;32356;-84
2023/02/08 11:09:30;;;;;;;0.20;0.20;;;;;;;6.44;39.31;102446.06;4413733;32;33499;-84
2023/02/08 11:12:01;;;;;;;2.03;1.92;;;;;;;6.58;38.92;102435.78;4417787;32;32927;-84
2023/02/08 11:14:52;;;;;;;0.20;0.20;;;;;;;6.26;39.63;102444.03;4405090;32;33658;-84
2023/02/08 11:17:28;;;;;;;0.55;0.55;;;;;;;6.37;40.13;102441.59;4409817;32;33434;-84
2023/02/08 11:23:27;;;;;;;2.08;1.45;;;;;;;6.16;39.49;102460.47;4413906;32;32461;-85
2023/02/08 11:26:17;;;;;;;0.05;0.05;;;;;;;5.79;40.24;102449.31;4414960;32;33551;-84
2023/02/08 11:28:58;;;;;;;0.57;0.57;;;;;;;6.16;39.87;102444.72;4413519;32;33829;-84
2023/02/08 11:31:31;;;;;;;0.35;0.35;;;;;;;6.09;42.09;102453.37;4420044;32;34314;-84
2023/02/08 11:34:05;;;;;;;0.62;0.62;;;;;;;6.50;40.24;102442.66;4411738;32;34761;-84
2023/02/08 11:36:45;;;;;;;0.40;0.40;;;;;;;5.90;39.93;102447.78;4390125;32;32923;-85
2023/02/08 11:42:23;;;;;;;0.20;0.20;;;;;;;5.79;40.41;102441.47;4415813;32;34280;-84
2023/02/08 11:45:04;;;;;;;0.10;0.10;;;;;;;5.56;40.86;102445.41;4395949;32;34012;-84
2023/02/08 11:47:45;;;;;;;0.40;0.40;;;;;;;6.03;40.08;102440.13;4410080;32;33918;-84
2023/02/08 11:50:43;;;;;;;;;;;;;;;5.93;40.16;102432.97;4400763;32;32678;-84
2023/02/08 11:53:27;;;;;;;1.48;0.75;;;;;;;6.43;38.87;102432.94;4403852;32;33854;-84
2023/02/08 11:56:33;;;;;;;0.10;0.10;;;;;;;6.43;39.06;102431.19;4392013;32;33902;-84
2023/02/08 11:59:02;;;;;;;0.10;0.10;;;;;;;6.96;38.08;102414.41;4388891;32;33145;-84
2023/02/08 12:01:36;;;;;;;1.12;0.85;;;;;;;6.68;37.29;102432.41;4411314;32;32725;-84
2023/02/08 12:04:16;;;;;;;0.30;0.30;;;;;;;6.24;37.62;102427.38;4416895;32;33055;-84
2023/02/08 12:07:16;;;;;;;1.67;1.45;;;;;;;6.52;38.35;102423.44;4391175;32;32918;-84
2023/02/08 12:10:03;;;;;;;0.52;0.52;;;;;;;6.29;36.99;102420.47;4411901;32;33555;-84
2023/02/08 12:12:37;;;;;;;0.85;0.85;;;;;;;6.15;36.70;102420.25;4405698;32;32857;-84
2023/02/08 12:15:21;;;;;;;0.00;0.00;;;;;;;6.28;37.08;102418.72;4413627;32;34685;-84
2023/02/08 12:21:05;;;;;;;0.05;0.05;;;;;;;5.89;37.36;102418.91;4401296;32;33749;-85
2023/02/08 12:23:46;;;;;;;0.60;0.52;;;;;;;5.97;38.05;102416.44;4399006;32;33514;-84
2023/02/08 12:26:37;;;;;;;0.35;0.35;;;;;;;6.13;37.90;102419.34;4413552;32;34604;-84
2023/02/08 12:29:42;;;;;;;1.17;0.85;;;;;;;6.10;38.14;102426.28;4403539;32;32657;-83
2023/02/08 12:32:34;;;;;;;0.57;0.57;;;;;;;6.24;37.17;102414.28;4413376;32;33063;-84
2023/02/08 12:41:15;;;;;;;0.32;0.32;;;;;;;5.52;39.05;102422.59;4408386;32;33158;-84
2023/02/08 12:44:12;;;;;;;0.52;0.52;;;;;;;6.08;38.74;102422.75;4400895;32;33807;-87
2023/02/08 12:46:49;;;;;;;0.60;0.60;;;;;;;5.73;38.77;102412.50;4406737;32;33135;-84
2023/02/08 12:49:23;;;;;;;0.68;0.65;;;;;;;5.61;38.71;102412.28;4400932;32;33167;-84
2023/02/08 12:52:13;;;;;;;0.37;0.37;;;;;;;5.65;37.97;102409.75;4399214;32;32770;-84
2023/02/08 12:54:56;;;;;;;0.70;0.70;;;;;;;6.23;36.20;102406.37;4388743;32;34683;-84
2023/02/08 12:57:28;;;;;;;3.50;1.33;;;;;;;6.48;35.82;102399.75;4399783;32;32399;-83